Orcas, WA (98280)

10:57 PM PDT on October 24, 2014 (GMT -0700)
Westsound | Change Station
CLOSE
Current Station
Personal Weather Station
Location: Eastsound, WA
Elevation: 180 ft
Nearby Weather Stations

Elev 180 ft 48.63 °N, 122.95 °W | Updated 3 minutes ago

Rain
Rain
51.1 °F
Feels Like 51.1 °F
N
0.2
Wind Variable Wind from North
Gusts 2.0 mph

Today
High -- | Low -- °F
--% Chance of Precip.
Yesterday
High -- | Low -- °F
Precip. -- in
7:45 AM 6:05 PM
New Moon, 2% visible
Pressure 29.84 in
Visibility 10.0 miles
Clouds Clear
Dew Point 46 °F
Humidity 82%
Rainfall 0.00 in
Snow Depth Not available.
UV 0 out of 12
Pollen .40 out of 12
Air Quality Not available.
Flu Activity Sporadic
METAR KORS 250535Z AUTO 00000KT 10SM -RA CLR 12/07 A2984 RMK AO2

More Conditions Fewer Conditions

Pressure 29.84 in
Visibility 10.0 miles
Clouds Clear
Dew Point 46 °F
Humidity 82%
Rainfall 0.00 in
Snow Depth Not available.
UV 0 out of 12
Pollen .40 out of 12
Air Quality Not available.
Flu Activity Sporadic
METAR KORS 250535Z AUTO 00000KT 10SM -RA CLR 12/07 A2984 RMK AO2

More Conditions Fewer Conditions

10-Day Weather Forecast

Almanac

Astronomy

Oct. 24, 2014 Rise Set
Actual Time 7:45 AM PDT 6:05 PM PDT
Civil Twilight 7:13 AM PDT 6:37 PM PDT
Nautical Twilight 6:36 AM PDT 7:13 PM PDT
Astronomical Twilight 6:00 AM PDT 7:50 PM PDT
Moon 8:33 AM PDT (10/24) 6:44 PM PDT (10/24)
Length of Visible Light 11h 24m
Length of Day
10h 19m
Tomorrow will be 3m 20s shorter.
New Moon, 2% of the Moon is Illuminated
Oct 25
New Moon
Oct 30
First Quarter
Nov 6
Full
Nov 14
Last Quarter
Nov 22
New

Yesterday's Extremes

State Highs State Lows

Community

WunderPhotos

Upload Photos

1,764,785 photos uploaded!

Nearby

Snow Depth

Station Depth Elevation
Elbow Lake 0 in 3200 ft
Mf Nooksack 2 in 4980 ft
Dungeness 0 in 4100 ft
Waterhole 3 in 5000 ft
Beaver Pass 0 in 3620 ft

Earthquake Activity

City Distance Mag. Time & Date
Birch Bay, Washington 15 miles 2.8 3:02 AM PDT
2014-10-24
Minimum magnitude displayed is 2.5.

Coastal Water Temperatures

Place Temperature
Port Townsend, WA 52.0 °F
Friday Harbor, WA 51.1 °F
Port Angeles, WA 57.0 °F

Nearby Weather Stations